Main page


Airports :

Najaf, Iraq

Al Najaf International Airport

latitude: 31-59-23N, longitude: 44-24-15E, elevation: 31 m

Current weather observation

The report was made 51 minutes ago, at 21:00 UTC
Wind 6 kt from the Northwest
Temperature 22°C
Humidity 25%
Pressure 1015 hPa
Visibility 10 km or more
no clouds below 1500 m and no cumulonimbus

METAR: ORNI 222100Z 32006KT CAVOK 22/01 Q1015 NOSIG

Time: 00:51 (21:51 UTC)


The report was made 5 hours and 51 minutes ago, at 16:00 UTC
Forecast valid from 22 at 18 UTC to 23 at 18 UTC
Wind 12 kt from the North/Northwest
Visibility: 8000 m

TAF: ORNI 221600Z 2218/2318 34012KT 8000 NSC

Weather observations and forecasts of more than 4000 airports (METAR and TAF reports).

The available stations are represented by yellow and red dots on the map.

Hover mouse over dot to see the name of the station.

Then click to see weather observations and forecasts.

To change the map : click on the green buttons with a black cross to zoom in, on the green button with a dash to zoom out, or on the green arrows for adjacent maps.